Date,TemperatureHighF,TemperatureAvgF,TemperatureLowF,DewpointHighF,DewpointAvgF,DewpointLowF,HumidityHigh,HumidityAvg,HumidityLow,PressureMaxIn,PressureMinIn,WindSpeedMaxMPH,WindSpeedAvgMPH,GustSpeedMaxMPH,PrecipitationSumIn
2013-1-1,42.8,33.7,24.1,38.6,30.6,23.1,98,89,72,29.91,29.79,5,1,7,0.00
2013-1-2,42.6,39.2,33.7,39.0,33.8,31.2,91,81,70,30.40,29.88,12,3,19,0.00
2013-1-3,43.8,39.5,34.6,40.4,35.5,31.1,92,86,78,30.40,30.31,18,5,20,0.01
2013-1-4,49.8,46.4,43.6,46.8,43.0,39.8,97,88,75,30.42,30.16,18,5,21,0.37
2013-1-5,49.5,46.1,41.5,46.4,42.3,40.3,98,87,76,30.33,30.16,18,5,27,0.11
2013-1-6,44.2,42.3,40.7,42.3,40.9,39.8,100,95,88,30.32,30.12,10,2,18,0.06
2013-1-7,45.2,41.3,38.7,42.3,39.9,38.1,99,95,88,30.34,30.18,12,1,19,0.13
2013-1-8,41.8,39.7,37.1,40.9,39.0,36.8,99,98,95,30.30,30.16,5,1,7,0.06
2013-1-9,42.4,40.9,39.7,40.5,39.1,36.8,96,93,87,30.19,29.88,8,2,11,0.00
2013-1-10,39.8,38.0,36.2,37.2,34.5,32.1,96,87,79,29.88,29.70,10,3,17,0.05
2013-1-11,36.6,29.6,25.0,33.9,24.8,20.0,96,82,70,30.02,29.69,13,4,22,0.02
2013-1-12,32.3,25.3,17.7,23.6,20.7,16.0,95,83,63,30.09,30.00,11,1,14,0.00
2013-1-13,29.2,25.2,18.9,24.7,21.4,16.9,93,86,75,30.09,30.04,8,2,11,0.00
2013-1-14,28.9,26.8,24.7,26.5,24.7,22.6,96,92,87,30.04,29.89,7,2,11,0.00
2013-1-15,28.4,23.7,14.6,25.0,21.8,12.7,96,92,86,29.92,29.76,5,1,7,0.01
2013-1-16,28.3,27.2,26.3,26.8,25.4,24.6,95,93,88,29.77,29.72,8,1,15,0.00
2013-1-17,28.6,26.9,25.3,25.4,24.2,22.3,93,90,84,29.91,29.73,14,3,17,0.00
2013-1-18,25.3,22.9,21.4,23.7,20.0,18.3,94,89,84,29.90,29.70,7,2,11,0.00
2013-1-19,23.5,21.4,20.3,19.2,17.9,16.9,91,87,79,29.70,29.55,8,1,11,0.00
2013-1-20,26.9,24.2,21.1,25.4,21.6,18.1,94,90,87,29.56,29.46,9,2,11,0.00
2013-1-21,28.0,25.9,22.9,26.5,24.5,21.1,97,94,91,29.59,29.44,7,1,8,0.00
2013-1-22,25.1,22.1,20.2,21.1,18.8,17.3,93,87,81,29.78,29.59,5,1,7,0.00
2013-1-23,25.3,22.9,21.0,22.3,20.0,17.7,91,89,87,29.81,29.77,5,1,6,0.00
2013-1-24,25.1,23.3,21.1,22.3,20.6,18.1,94,90,87,30.00,29.79,6,2,9,0.00
2013-1-25,23.0,18.4,4.9,20.2,15.2,2.3,92,87,82,30.15,30.00,8,2,11,0.00
2013-1-26,18.5,12.2,3.6,15.8,9.5,0.9,92,89,84,30.11,30.01,6,2,8,0.00
2013-1-27,33.9,27.8,18.6,30.7,24.9,15.9,97,89,83,30.02,29.74,7,2,8,0.01
2013-1-28,39.7,34.3,29.5,34.9,32.2,28.2,97,92,81,30.07,29.75,6,1,9,0.11
2013-1-29,40.9,38.4,34.3,39.3,36.2,32.4,97,92,84,30.06,29.86,11,4,16,0.28
2013-1-30,55.1,47.7,40.2,49.6,44.9,39.1,98,90,80,29.90,29.66,18,5,24,0.18
2013-1-31,48.1,44.1,40.8,41.5,35.8,32.0,91,73,57,29.96,29.76,19,6,26,0.01
2013-2-1,45.1,40.7,35.2,37.8,36.3,33.3,94,85,73,29.83,29.24,18,3,28,0.07
2013-2-2,40.0,37.1,30.2,37.9,33.0,22.6,98,86,70,29.74,29.16,20,5,28,0.07
2013-2-3,37.9,31.5,22.1,31.4,25.6,20.3,95,79,64,29.96,29.75,18,3,19,0.00
2013-2-4,41.6,36.8,32.8,38.5,34.3,30.5,95,91,87,29.81,29.72,11,4,18,0.11
2013-2-5,45.5,39.4,34.5,37.6,34.6,30.1,94,83,67,29.80,29.46,15,4,21,0.00
2013-2-6,40.3,32.3,23.6,31.2,26.1,21.8,95,79,52,29.59,29.47,12,2,16,0.01
2013-2-7,37.8,30.6,24.5,31.2,27.4,23.0,95,88,71,29.82,29.59,10,1,16,0.00
2013-2-8,36.9,28.9,23.4,28.1,25.3,21.9,96,87,62,29.93,29.81,8,1,9,0.01
2013-2-9,31.7,28.3,24.4,26.2,24.5,22.7,96,86,72,30.05,29.93,6,1,9,0.01
2013-2-10,32.6,27.9,21.7,25.3,21.9,18.6,94,79,61,30.04,29.89,9,1,10,0.01
2013-2-11,28.9,26.1,17.8,23.3,20.7,15.8,100,80,71,29.89,29.75,14,4,20,0.00
2013-2-12,29.5,28.5,27.8,27.7,25.6,23.2,96,89,80,29.93,29.72,9,2,12,0.02
2013-2-13,32.0,29.1,27.3,27.4,26.0,24.9,95,88,78,30.31,29.93,8,1,11,0.06
2013-2-14,33.0,29.5,27.8,28.4,26.5,25.1,92,88,82,30.31,30.09,5,1,7,0.03
2013-2-15,35.0,31.5,29.4,31.2,29.3,27.4,97,92,83,30.16,30.03,4,0,5,0.02
2013-2-16,36.2,31.5,28.7,32.7,30.1,27.9,97,95,87,30.23,30.16,4,0,5,0.03
2013-2-17,35.9,33.2,31.2,33.0,31.3,29.0,98,93,76,30.24,30.20,8,1,10,0.03
2013-2-18,35.8,32.5,30.8,30.8,29.9,28.7,97,90,77,30.21,30.08,5,0,7,0.00
2013-2-19,33.9,32.1,29.7,32.3,29.5,27.0,100,90,80,30.08,29.81,9,3,14,0.13
2013-2-20,33.5,28.5,22.1,27.4,25.4,20.6,96,88,73,30.14,29.95,12,3,22,0.02
2013-2-21,29.8,24.7,21.5,23.2,21.3,19.1,96,87,70,30.15,30.07,8,1,11,0.09
2013-2-22,25.2,23.0,20.5,22.6,19.8,16.3,93,88,78,30.07,29.87,11,3,17,0.00
2013-2-23,29.8,26.1,23.4,27.8,24.3,21.1,96,93,91,29.87,29.74,11,3,13,0.01
2013-2-24,37.6,31.1,23.9,33.6,29.3,22.9,98,93,81,29.94,29.76,5,1,7,0.27
2013-2-25,40.2,35.9,33.8,38.8,35.2,33.2,99,97,91,30.26,29.92,7,2,8,0.36
2013-2-26,38.7,35.4,32.8,37.0,34.1,31.5,100,95,89,30.36,30.25,16,3,19,0.00
2013-2-27,36.6,33.9,32.1,33.7,32.4,31.3,97,94,89,30.42,30.36,9,1,13,0.01
2013-2-28,40.2,35.4,32.9,34.4,32.5,31.5,97,90,75,30.39,30.20,5,1,7,0.00
2013-3-1,37.7,34.6,32.2,32.7,30.6,28.5,96,85,74,30.24,30.12,11,2,15,0.00
2013-3-2,43.1,32.7,24.0,30.3,26.7,22.5,96,80,50,30.26,30.13,7,1,11,0.01
2013-3-3,39.5,30.3,21.4,31.0,26.1,20.1,96,85,68,30.24,30.10,8,2,14,0.00
2013-3-4,44.7,33.4,25.4,31.5,27.1,23.8,96,80,49,30.27,30.17,11,2,13,0.00
2013-3-5,50.8,33.7,22.1,33.9,27.6,20.6,95,81,51,30.17,29.87,10,4,14,0.01
2013-3-6,53.2,36.3,23.9,38.2,30.6,22.6,97,82,54,29.87,29.64,9,3,11,0.01
2013-3-7,49.0,39.2,30.5,43.4,36.5,29.2,96,90,80,29.65,29.58,9,2,9,0.00
2013-3-8,47.3,43.1,40.0,44.6,41.7,38.9,100,95,90,29.64,29.60,9,2,12,0.01
2013-3-9,42.3,40.2,38.0,41.5,39.6,37.4,100,98,96,29.64,29.56,6,1,8,0.06
2013-3-10,54.8,44.7,39.6,46.1,41.2,38.8,100,89,57,29.56,29.41,8,2,12,0.02
2013-3-11,43.9,31.1,26.3,41.9,28.1,22.8,95,89,84,29.70,29.42,9,2,15,0.06
2013-3-12,29.4,27.0,25.2,25.9,23.9,22.6,92,88,84,29.69,29.52,8,2,15,0.00
2013-3-13,28.9,25.3,23.3,23.6,21.4,18.9,94,85,75,29.73,29.51,8,2,14,0.02
2013-3-14,32.1,25.3,19.2,19.0,17.7,15.1,92,74,52,29.83,29.73,14,3,21,0.03
2013-3-15,32.1,22.7,14.8,22.4,17.9,12.9,94,83,58,30.09,29.82,15,2,19,0.00
2013-3-16,38.6,25.0,11.2,22.7,16.2,9.0,93,73,39,30.16,30.02,8,2,12,0.02
2013-3-17,42.7,32.1,19.9,24.8,20.9,16.2,90,65,46,30.02,29.66,18,5,25,0.00
2013-3-18,41.7,33.3,28.4,33.8,28.1,23.3,96,82,63,29.66,29.23,12,3,16,0.02
2013-3-19,41.8,35.3,31.3,36.3,32.7,30.4,97,91,79,29.58,29.22,10,2,12,0.28
2013-3-20,49.9,39.8,29.9,39.3,34.7,28.3,96,83,64,29.77,29.58,10,2,14,0.06
2013-3-21,39.1,35.1,27.5,36.1,29.8,23.8,95,81,64,30.07,29.77,20,4,22,0.01
2013-3-22,31.7,28.6,23.6,25.9,23.8,21.8,95,83,70,30.12,30.06,9,2,14,0.00
2013-3-23,32.1,26.4,18.4,23.3,16.4,7.6,80,66,46,30.20,30.10,17,5,22,0.00
2013-3-24,34.6,24.2,16.0,16.1,10.1,6.9,71,56,33,30.20,30.07,20,6,29,0.00
2013-3-25,32.2,26.4,22.4,19.7,16.1,14.2,78,65,50,30.08,29.92,18,5,24,0.00
2013-3-26,33.3,28.4,23.8,17.6,12.9,8.1,73,53,36,29.92,29.84,20,4,21,0.00
2013-3-27,29.7,27.5,24.9,26.2,21.8,15.0,94,80,61,29.92,29.87,11,3,13,0.00
2013-3-28,39.0,32.7,26.7,29.7,27.5,25.1,94,82,67,29.90,29.75,12,3,18,0.02
2013-3-29,41.6,35.1,28.4,34.1,28.9,24.4,96,79,55,29.74,29.64,15,3,21,0.07
2013-3-30,45.2,35.1,26.9,31.7,28.1,24.6,92,77,52,29.73,29.65,12,2,17,0.00
2013-3-31,36.3,32.7,30.2,28.9,27.2,25.0,92,80,67,29.79,29.69,14,4,20,0.00
2013-4-1,37.1,31.7,26.3,28.4,25.7,23.3,92,79,62,29.87,29.77,9,2,15,0.01
2013-4-2,39.1,34.1,29.3,28.9,26.3,24.1,88,73,60,29.93,29.84,13,3,19,0.00
2013-4-3,37.6,33.5,31.0,28.5,26.8,24.7,85,77,66,29.96,29.93,11,3,14,0.00
2013-4-4,37.7,33.6,30.7,30.2,28.7,27.1,88,82,73,29.94,29.84,8,2,12,0.00
2013-4-5,38.4,35.0,32.5,33.2,31.0,29.6,92,86,77,29.86,29.72,9,2,13,0.00
2013-4-6,40.0,35.9,33.8,33.7,32.0,30.9,91,86,77,30.12,29.86,8,1,11,0.00
2013-4-7,42.3,35.6,26.2,32.7,29.8,23.4,93,80,56,30.14,30.04,9,2,12,0.00
2013-4-8,49.8,35.8,18.9,32.1,24.3,17.2,95,67,38,30.04,29.71,15,3,20,0.00
2013-4-9,52.1,41.6,34.1,40.8,35.1,28.3,93,78,59,29.72,29.63,7,1,11,0.08
2013-4-10,53.2,44.6,34.4,44.7,40.1,33.3,98,85,65,29.83,29.65,10,2,20,0.02
2013-4-11,57.8,47.1,34.5,50.7,41.8,33.2,97,83,63,29.83,29.60,13,2,18,0.01
2013-4-12,57.3,49.6,36.3,51.5,44.9,34.7,99,85,65,29.79,29.52,16,3,21,0.09
2013-4-13,59.9,48.2,35.1,46.9,40.0,33.8,98,75,47,30.24,29.79,19,4,28,0.02
2013-4-14,65.1,47.9,30.7,44.3,38.1,29.6,98,73,40,30.35,30.24,8,2,11,0.00
2013-4-15,71.3,53.7,33.5,45.6,38.9,32.4,97,63,33,30.30,30.11,13,4,17,0.00
2013-4-16,70.6,57.4,44.7,51.3,44.4,38.2,89,64,42,30.13,30.07,11,2,13,0.00
2013-4-17,70.8,58.5,46.3,54.8,49.4,44.9,98,75,44,30.19,30.12,7,1,12,0.00
2013-4-18,80.0,60.4,40.0,55.6,48.5,39.2,98,70,36,30.12,29.92,10,2,15,0.00
2013-4-19,60.0,54.9,46.9,54.5,46.0,37.4,98,75,44,30.21,29.98,6,1,9,0.13
2013-4-20,51.2,47.4,43.3,46.2,43.3,40.3,96,86,74,30.29,30.21,8,1,13,0.15
2013-4-21,67.5,54.7,43.1,52.2,45.5,38.9,88,72,55,30.24,29.90,11,2,14,0.00
2013-4-22,69.4,55.3,39.8,54.6,48.3,38.7,100,79,51,30.01,29.89,8,2,11,0.00
2013-4-23,67.4,55.9,45.1,50.9,45.5,41.7,98,72,44,30.20,30.01,16,3,18,0.00
2013-4-24,72.8,56.2,37.6,47.5,43.4,36.5,98,67,37,30.31,30.20,12,2,24,0.00
2013-4-25,76.7,58.1,39.1,52.6,46.1,38.0,98,70,36,30.27,30.09,9,1,10,0.00
2013-4-26,79.8,61.4,40.7,54.0,47.2,39.6,98,66,32,30.09,29.55,11,2,17,0.00
2013-4-27,64.4,56.7,46.7,55.1,50.9,45.3,95,82,66,29.71,29.54,14,4,25,0.24
2013-4-28,51.1,46.9,42.6,45.1,42.8,40.1,95,86,74,30.02,29.65,14,2,18,0.06
2013-4-29,55.5,50.3,43.8,49.7,46.5,42.3,95,87,78,30.14,29.96,8,2,10,0.00
2013-4-30,63.1,53.3,45.3,53.0,47.8,44.1,97,83,67,30.14,30.02,13,2,22,0.03
2013-5-1,56.6,50.8,46.4,50.8,47.2,44.9,95,88,79,30.22,30.08,9,2,12,0.01
2013-5-2,61.6,53.6,48.5,56.0,51.0,47.4,98,91,80,30.13,29.98,8,2,13,0.06
2013-5-3,54.8,51.7,46.3,51.0,49.3,45.2,97,92,82,30.00,29.92,9,2,18,0.13
2013-5-4,65.8,51.8,42.7,55.0,48.2,42.1,99,89,62,30.11,29.98,11,1,21,0.25
2013-5-5,66.8,55.9,45.4,55.9,50.9,44.8,100,85,57,30.22,30.11,9,2,15,0.00
2013-5-6,62.9,55.5,43.8,58.2,52.6,43.0,99,91,78,30.18,29.98,9,3,12,0.02
2013-5-7,72.0,60.8,52.7,63.7,58.0,52.2,100,91,66,29.99,29.88,17,3,23,0.12
2013-5-8,75.1,60.7,52.1,62.0,57.0,51.8,100,89,55,29.97,29.88,14,2,16,0.00
2013-5-9,77.0,62.1,48.7,64.5,55.9,48.4,100,83,51,29.95,29.85,10,2,16,0.01
2013-5-10,57.9,56.2,51.4,57.6,55.4,50.8,99,97,94,29.98,29.81,10,1,15,0.72
2013-5-11,57.9,53.3,49.4,53.4,50.8,49.2,100,92,76,29.98,29.91,6,1,7,0.01
2013-5-12,64.6,53.4,43.7,51.0,46.3,40.9,99,79,51,30.02,29.83,19,3,27,0.00
2013-5-13,58.8,48.4,39.0,48.5,43.3,37.4,95,83,56,30.06,29.97,13,3,21,0.02
2013-5-14,67.4,56.4,46.1,50.7,47.4,44.2,94,74,46,29.97,29.79,9,3,14,0.00
2013-5-15,74.7,58.5,39.4,56.0,48.5,38.6,99,73,45,29.79,29.56,17,5,24,0.01
2013-5-16,75.4,63.5,46.0,55.8,51.1,44.9,98,67,40,29.57,29.41,24,6,32,0.00
2013-5-17,74.9,64.9,52.3,58.4,54.4,49.1,93,70,51,29.51,29.44,15,5,24,0.00
2013-5-18,68.4,58.4,48.5,56.0,52.1,47.1,97,82,50,29.82,29.51,13,3,15,0.33
2013-5-19,75.9,59.6,43.2,61.2,52.2,42.4,99,79,51,29.80,29.58,15,4,23,0.48
2013-5-20,66.6,56.1,47.1,50.6,47.7,44.4,97,76,48,29.88,29.74,14,3,19,0.02
2013-5-21,67.4,54.4,40.4,52.0,45.9,39.6,100,76,45,29.90,29.77,10,2,17,0.01
2013-5-22,61.5,50.9,43.1,52.1,46.9,41.0,98,87,63,29.83,29.64,12,3,21,0.09
2013-5-23,54.3,47.4,39.1,43.5,41.0,37.7,95,79,56,29.83,29.69,11,1,15,0.01
2013-5-24,54.0,44.8,34.4,46.6,40.8,33.6,99,86,71,29.85,29.71,11,3,15,0.00
2013-5-25,53.3,45.5,37.9,49.7,43.1,36.8,97,92,74,29.85,29.78,12,1,19,0.11
2013-5-26,47.5,44.4,41.2,45.0,42.3,40.1,98,92,84,29.78,29.66,15,4,20,0.28
2013-5-27,55.9,49.2,43.4,50.8,46.9,42.3,98,92,81,29.79,29.62,10,3,14,0.20
2013-5-28,67.1,54.5,41.0,52.5,47.4,40.2,100,79,52,29.79,29.52,8,2,16,0.00
2013-5-29,66.3,54.2,45.2,57.7,51.2,44.6,99,90,65,29.64,29.48,7,1,12,0.12
2013-5-30,51.6,49.8,48.1,50.6,48.9,47.5,100,97,92,29.66,29.42,9,2,13,1.10
2013-5-31,59.2,52.8,45.6,55.0,50.8,45.0,100,94,70,29.65,29.39,14,2,20,0.28
2013-6-1,57.4,50.1,43.4,57.3,49.6,43.1,100,99,96,29.72,29.64,13,2,17,1.17
2013-6-2,55.0,51.3,48.1,54.4,49.6,46.2,100,94,84,30.03,29.67,19,6,29,0.72
2013-6-3,49.0,47.9,46.7,48.7,47.3,46.0,99,98,96,30.12,30.03,7,2,12,0.60
2013-6-4,63.8,54.2,48.2,54.2,50.8,47.7,99,89,69,30.10,30.01,12,2,16,0.05
2013-6-5,67.8,56.9,42.7,53.4,48.5,42.2,100,76,50,30.10,30.04,11,2,18,0.00
2013-6-6,67.4,58.2,49.4,58.2,53.8,48.2,98,86,68,30.14,30.09,7,1,12,0.00
2013-6-7,74.7,62.2,49.0,62.5,56.2,48.6,100,83,58,30.13,30.03,9,2,12,0.01
2013-6-8,78.6,65.2,52.8,63.9,58.3,52.5,100,81,50,30.06,29.86,8,2,12,0.02
2013-6-9,80.2,64.2,53.5,65.6,58.6,52.9,100,84,48,29.86,29.67,18,2,27,0.46
2013-6-10,61.8,57.9,54.4,60.9,57.3,53.8,100,98,94,29.85,29.67,5,1,9,0.20
2013-6-11,70.4,60.4,48.4,57.5,51.6,47.3,100,76,45,30.05,29.85,15,2,19,0.33
2013-6-12,76.7,61.9,45.6,58.7,51.4,45.0,99,73,37,30.12,30.05,8,1,13,0.00
2013-6-13,82.7,66.0,46.8,61.7,55.2,46.2,99,72,43,30.12,29.88,11,2,12,0.00
2013-6-14,72.2,61.4,53.1,58.0,53.9,49.2,97,79,45,30.11,29.88,14,3,19,0.06
2013-6-15,77.5,63.3,47.8,63.3,55.2,46.9,98,78,47,30.05,29.90,11,2,14,0.00
2013-6-16,80.1,67.2,53.6,59.9,55.6,51.1,99,70,40,30.02,29.94,10,2,18,0.00
2013-6-17,86.8,70.5,53.0,68.2,60.8,51.8,97,74,50,30.02,29.90,9,2,14,0.00
2013-6-18,95.7,76.7,59.4,76.1,68.5,58.7,100,79,36,29.98,29.90,7,2,11,0.00
2013-6-19,91.9,78.4,62.3,77.1,68.8,61.8,99,75,48,29.99,29.84,14,4,24,0.01
2013-6-20,93.3,77.9,64.0,75.7,69.3,60.4,99,77,48,29.86,29.68,19,3,30,0.00
2013-6-21,78.9,70.1,62.7,64.2,61.2,59.4,96,75,53,29.98,29.77,17,3,30,0.05
2013-6-22,78.9,69.1,60.5,65.3,61.3,59.1,98,79,53,30.00,29.89,6,1,12,0.09
2013-6-23,77.0,67.5,57.0,63.3,58.7,51.4,99,75,50,29.95,29.85,10,3,19,0.00
2013-6-24,63.0,58.1,54.4,57.0,54.2,49.9,98,88,64,30.04,29.94,8,1,13,0.28
2013-6-25,55.6,53.7,49.9,54.6,52.4,48.5,99,96,90,30.15,30.00,16,5,20,1.10
2013-6-26,56.1,51.6,48.5,50.7,48.2,45.6,97,89,73,30.26,30.13,15,4,19,0.06
2013-6-27,62.7,54.4,48.1,51.4,48.2,45.7,96,80,60,30.26,30.16,6,1,8,0.00
2013-6-28,67.1,57.3,44.3,53.7,49.0,43.5,100,77,46,30.17,30.06,6,1,12,0.01
2013-6-29,67.7,57.6,44.2,54.9,50.7,43.6,99,79,58,30.10,29.97,13,3,19,0.02
2013-6-30,65.8,56.7,49.4,55.0,47.1,42.4,95,72,48,30.18,30.06,13,4,19,0.00
2013-7-1,75.9,62.3,46.6,56.8,51.7,45.5,98,72,44,30.13,29.99,10,2,13,0.00
2013-7-2,83.1,66.1,47.3,63.0,55.3,46.4,99,72,41,30.02,29.90,8,1,10,0.00
2013-7-3,79.9,64.6,52.6,67.6,59.2,51.7,98,84,56,29.95,29.84,12,2,16,0.14
2013-7-4,76.0,67.0,59.3,64.7,62.0,58.7,99,85,62,30.18,29.94,7,2,11,0.03
2013-7-5,75.6,65.4,58.7,64.6,61.0,58.0,99,87,63,30.33,30.18,8,1,12,0.00
2013-7-6,75.3,65.0,54.1,67.4,60.8,53.5,99,87,65,30.35,30.28,7,1,15,0.02
2013-7-7,78.3,67.6,52.9,63.0,57.6,52.3,100,73,47,30.36,30.30,8,1,17,0.01
2013-7-8,78.3,65.7,51.2,61.4,56.4,50.3,99,75,47,30.37,30.27,8,1,12,0.00
2013-7-9,81.9,69.3,51.4,63.3,58.4,50.8,99,72,45,30.30,30.06,11,1,13,0.00
2013-7-10,81.3,67.5,53.0,64.7,58.0,52.4,99,75,45,30.07,29.88,11,2,14,0.00
2013-7-11,65.2,59.0,49.9,56.4,52.2,48.8,97,79,62,30.05,29.95,13,2,18,0.00
2013-7-12,72.7,62.1,51.0,55.8,52.3,49.0,96,73,48,30.10,30.05,11,2,18,0.00
2013-7-13,74.7,61.8,45.6,58.4,52.5,44.7,99,74,48,30.11,30.06,11,2,17,0.00
2013-7-14,77.3,63.4,46.4,58.8,54.0,45.5,99,75,46,30.13,30.05,11,2,14,0.00
2013-7-15,73.8,63.4,52.3,57.7,53.5,48.8,98,73,44,30.19,30.07,19,3,25,0.00
2013-7-16,81.2,64.7,45.4,58.7,52.5,44.5,99,69,38,30.23,30.13,10,2,14,0.00
2013-7-17,83.1,67.7,49.0,61.9,55.0,48.1,99,68,39,30.18,30.11,8,2,12,0.00
2013-7-18,84.3,69.0,51.0,62.1,56.6,49.9,98,69,36,30.18,30.08,10,2,13,0.00
2013-7-19,84.4,69.5,53.3,64.2,57.5,52.5,99,70,40,30.13,30.00,12,2,18,0.00
2013-7-20,79.7,66.2,53.0,61.6,56.8,52.1,99,75,45,30.11,30.05,12,1,15,0.00
2013-7-21,83.4,68.1,49.7,61.2,54.4,48.8,99,67,36,30.17,30.08,9,2,17,0.00
2013-7-22,88.5,69.0,48.5,61.1,53.5,47.5,99,65,28,30.11,29.93,10,2,12,0.00
2013-7-23,89.0,71.0,50.6,62.5,53.5,47.8,97,62,25,29.96,29.87,11,1,13,0.00
2013-7-24,90.7,72.0,51.8,64.6,56.8,50.1,96,65,30,29.96,29.86,8,2,14,0.02
2013-7-25,85.2,71.3,62.6,66.8,63.9,62.0,99,80,47,29.97,29.93,9,2,9,0.01
2013-7-26,90.1,73.9,59.0,69.7,63.1,58.3,100,74,38,29.99,29.88,7,2,9,0.00
2013-7-27,97.3,78.2,59.5,69.2,62.6,58.8,100,66,30,29.90,29.74,8,2,12,0.00
2013-7-28,98.3,80.3,60.3,69.7,63.2,58.3,98,63,28,29.86,29.74,11,2,15,0.00
2013-7-29,87.7,81.9,71.9,68.5,66.4,64.0,84,61,48,29.89,29.69,12,4,15,0.00
2013-7-30,78.0,70.1,60.1,64.9,59.8,55.0,95,71,49,30.06,30.00,13,4,21,0.06
2013-7-31,79.4,68.9,60.3,64.7,60.2,58.1,95,76,54,30.09,30.01,13,3,26,0.00
2013-8-1,87.5,68.6,53.7,66.1,59.3,53.1,100,76,41,30.11,29.98,7,1,9,0.00
2013-8-2,95.3,75.6,54.6,67.5,61.1,53.9,100,67,31,30.02,29.89,8,2,10,0.00
2013-8-3,99.3,77.6,57.4,71.6,62.0,55.4,99,66,24,30.01,29.91,8,1,12,0.00
2013-8-4,89.5,75.3,64.0,70.2,66.3,63.1,98,77,44,30.14,29.99,14,2,21,1.11
2013-8-5,84.2,75.7,62.1,69.5,66.6,62.0,100,76,56,30.11,29.97,7,3,10,0.01
2013-8-6,91.2,75.4,59.0,75.9,66.2,58.7,100,77,42,29.98,29.81,8,2,11,0.01
2013-8-7,85.9,78.9,68.9,71.1,68.3,64.5,95,71,56,29.93,29.77,8,3,13,0.14
2013-8-8,83.0,73.1,61.9,73.6,67.7,61.3,100,84,65,29.99,29.76,8,1,13,0.00
2013-8-9,72.9,63.3,56.9,64.5,60.0,56.0,98,90,68,30.10,29.98,8,1,13,0.45
2013-8-10,76.0,63.4,53.8,63.3,57.9,53.4,100,84,55,30.11,30.00,14,2,23,0.01
2013-8-11,74.1,61.6,51.5,60.7,55.1,50.5,100,81,54,30.06,29.99,13,2,21,0.00
2013-8-12,77.6,61.9,45.4,61.7,53.4,44.8,100,78,44,30.07,29.88,7,1,11,0.01
2013-8-13,72.5,61.2,52.5,57.7,53.1,45.4,99,78,39,30.09,29.88,13,3,19,0.00
2013-8-14,71.4,57.8,45.5,53.5,49.2,44.6,99,76,42,30.22,30.09,11,2,14,0.01
2013-8-15,74.7,57.4,40.7,53.5,46.6,39.9,99,73,35,30.26,30.16,7,1,9,0.00
2013-8-16,79.4,61.5,44.1,57.3,50.0,43.3,98,71,35,30.20,30.04,8,2,14,0.00
2013-8-17,85.1,64.2,45.8,63.5,53.7,44.9,99,74,34,30.07,29.93,6,1,8,0.00
2013-8-18,87.0,68.3,51.5,67.9,59.6,50.9,99,78,39,29.98,29.89,6,1,13,0.00
2013-8-19,74.9,62.9,59.0,63.5,60.4,58.3,98,92,63,30.07,29.92,13,1,35,0.50
2013-8-20,66.0,58.3,51.7,59.1,55.5,51.0,99,91,70,30.34,30.07,13,2,16,0.00
2013-8-21,71.3,57.8,48.6,57.8,51.5,47.7,100,82,46,30.34,30.21,7,1,11,0.01
2013-8-22,73.1,56.8,44.3,58.0,50.9,43.7,100,83,49,30.22,30.09,6,1,9,0.01
2013-8-23,73.3,59.4,45.6,58.7,52.0,45.0,99,80,50,30.11,30.02,11,2,13,0.00
2013-8-24,75.2,62.7,49.9,59.1,54.8,49.1,99,78,50,30.05,29.86,13,3,15,0.01
2013-8-25,63.3,57.7,53.0,58.4,55.2,52.3,100,92,75,29.89,29.83,9,2,15,0.40
2013-8-26,62.0,58.1,56.0,60.5,57.0,55.4,99,96,89,29.99,29.87,12,2,14,0.80
2013-8-27,64.2,57.6,53.5,57.0,54.9,53.2,100,91,73,29.98,29.93,10,2,14,0.08
2013-8-28,66.0,59.1,52.4,60.2,56.4,51.5,100,92,74,30.09,29.93,8,1,9,0.20
2013-8-29,74.8,59.5,48.5,59.7,53.1,48.2,100,82,45,30.17,30.09,6,1,12,0.00
2013-8-30,77.7,60.0,46.9,59.2,52.8,46.3,100,81,40,30.16,30.06,6,1,8,0.01
2013-8-31,77.4,62.5,50.1,61.6,55.7,49.5,99,81,45,30.09,30.01,13,2,18,0.01
2013-9-1,65.4,57.3,47.0,58.1,51.1,44.9,98,82,49,30.21,30.07,14,2,16,0.28
2013-9-2,64.8,55.3,45.4,54.7,50.2,44.1,98,84,64,30.22,30.11,13,3,22,0.02
2013-9-3,68.2,63.5,59.3,61.1,58.3,54.7,96,84,76,30.29,30.10,13,4,19,0.00
2013-9-4,73.3,64.0,54.2,63.2,59.8,53.3,99,87,66,30.29,30.16,7,1,8,0.00
2013-9-5,77.6,62.3,49.8,63.2,56.6,49.5,100,84,53,30.17,30.00,7,2,11,0.01
2013-9-6,76.6,62.1,48.6,59.0,54.4,48.3,100,79,49,30.00,29.91,12,3,15,0.01
2013-9-7,79.1,62.0,47.8,62.4,54.9,47.2,99,81,47,30.09,29.98,11,3,12,0.01
2013-9-8,79.0,61.6,48.2,65.7,56.3,47.6,99,85,54,30.09,29.96,7,1,12,0.01
2013-9-9,67.7,59.6,45.6,60.6,55.0,44.5,99,86,55,30.07,29.83,15,2,20,0.32
2013-9-10,65.9,52.9,43.4,56.2,50.2,42.6,99,91,60,30.07,29.91,11,2,12,0.27
2013-9-11,62.5,53.8,47.5,51.3,49.1,46.9,98,85,62,29.99,29.90,9,2,15,0.01
2013-9-12,60.8,54.2,50.9,52.4,50.2,48.3,97,87,67,29.99,29.87,8,1,11,0.01
2013-9-13,62.0,54.3,49.2,55.9,51.1,48.6,99,90,72,30.06,29.99,8,1,15,0.02
2013-9-14,70.7,58.6,48.7,57.1,53.1,47.6,99,84,56,30.03,29.89,11,2,15,0.00
2013-9-15,68.5,60.9,56.7,62.7,58.0,54.9,99,91,74,29.90,29.71,6,1,11,0.09
2013-9-16,59.8,56.1,53.2,57.0,54.1,52.1,99,93,81,29.71,29.50,7,1,12,0.08
2013-9-17,57.8,49.0,41.0,52.6,45.7,39.6,98,89,58,29.69,29.49,13,2,22,0.06
2013-9-18,58.0,47.5,36.5,56.8,46.8,35.7,100,98,96,29.67,29.42,7,1,10,0.29
2013-9-19,58.7,49.2,41.3,52.8,46.3,40.7,100,91,67,29.95,29.61,13,2,21,0.02
2013-9-20,60.4,51.0,43.5,55.7,49.5,42.7,99,95,80,30.07,29.91,8,1,11,0.38
2013-9-21,59.3,53.3,47.7,53.8,51.2,46.8,100,93,78,30.34,30.06,11,1,19,0.01
2013-9-22,62.3,52.2,43.9,54.7,49.3,43.6,100,91,70,30.35,30.23,12,1,13,0.01
2013-9-23,65.6,57.6,52.1,56.7,53.2,50.9,97,86,66,30.23,30.06,13,3,20,0.00
2013-9-24,66.7,57.7,49.2,57.1,53.1,48.6,100,85,68,30.06,29.91,10,2,14,0.00
2013-9-25,63.9,54.4,45.4,56.9,51.8,44.8,100,92,76,29.95,29.80,6,1,8,0.00
2013-9-26,66.5,53.4,46.1,58.1,51.3,45.0,100,93,62,30.06,29.77,17,2,24,0.07
2013-9-27,56.6,45.5,36.2,47.1,41.9,35.4,100,89,64,30.10,30.02,9,2,10,0.01
2013-9-28,60.0,44.3,33.5,49.3,39.3,32.9,100,85,49,30.06,29.97,9,1,11,0.01
2013-9-29,58.4,46.4,33.1,45.3,40.1,32.5,99,81,55,30.01,29.92,14,4,22,0.01
2013-9-30,58.2,46.5,35.1,42.0,39.3,34.1,99,78,53,29.94,29.86,13,3,19,0.00
2013-10-1,55.9,41.4,29.8,42.2,35.7,29.0,98,83,50,30.10,29.92,9,3,14,0.01
2013-10-2,54.6,39.4,27.9,42.2,32.7,27.1,99,80,43,30.36,30.10,14,2,18,0.01
2013-10-3,53.9,39.1,26.3,37.5,31.1,25.3,98,76,47,30.40,30.33,17,4,24,0.01
2013-10-4,57.9,40.7,26.5,38.6,32.1,25.5,97,75,43,30.37,30.21,11,3,16,0.01
2013-10-5,56.7,42.2,29.4,44.7,36.8,28.4,97,83,55,30.22,30.06,11,2,15,0.00
2013-10-6,61.1,47.4,37.0,47.9,42.7,35.9,99,85,57,30.32,30.12,7,1,9,0.00
2013-10-7,56.6,46.2,36.4,49.8,43.1,35.5,98,90,69,30.37,30.32,5,0,7,0.00
2013-10-8,63.2,47.2,38.5,51.6,43.9,37.8,100,90,59,30.33,30.20,9,1,11,0.02
2013-10-9,55.7,47.2,40.0,51.0,45.5,39.2,100,94,83,30.22,29.91,4,0,6,0.00
2013-10-10,63.8,51.3,41.0,53.0,47.7,40.3,100,89,63,29.91,29.65,11,2,14,0.58
2013-10-11,50.9,45.5,40.4,50.8,45.1,39.8,100,98,96,30.11,29.81,6,1,15,0.51
2013-10-12,52.3,45.2,37.8,51.7,44.8,37.5,100,99,95,30.13,29.98,9,1,11,0.18
2013-10-13,58.0,46.2,37.2,48.5,43.3,36.6,99,91,67,30.18,30.04,8,2,12,0.00
2013-10-14,62.4,44.5,34.8,52.0,42.1,34.5,100,92,58,30.19,30.07,6,2,9,0.01
2013-10-15,57.4,47.4,40.6,51.3,45.2,40.2,100,93,75,30.07,29.74,9,1,12,0.02
2013-10-16,53.0,46.0,36.5,46.6,43.0,35.7,98,90,74,30.01,29.73,13,2,18,0.01
2013-10-17,58.0,46.0,34.3,51.0,43.2,33.8,100,91,73,30.00,29.88,15,2,19,0.09
2013-10-18,54.1,49.4,42.5,50.0,45.0,40.9,97,85,70,30.15,29.88,10,3,15,0.02
2013-10-19,59.9,43.8,32.5,48.0,40.3,31.9,100,89,63,30.15,30.01,11,2,13,0.01
2013-10-20,66.6,51.1,37.8,56.8,48.1,37.1,99,91,66,30.06,29.99,6,1,9,0.20
2013-10-21,68.6,56.1,47.7,58.2,52.9,46.8,100,90,67,30.06,30.01,9,1,13,0.00
2013-10-22,69.2,53.7,44.1,58.9,50.8,43.8,100,91,68,30.06,29.91,9,1,13,0.02
2013-10-23,65.6,54.2,44.9,58.1,52.1,44.3,100,93,75,29.96,29.84,8,1,11,0.01
2013-10-24,67.2,56.4,43.4,56.6,52.1,42.6,99,87,63,30.14,29.96,11,2,18,0.02
2013-10-25,60.1,48.0,38.9,56.5,47.0,38.3,100,97,86,30.13,30.05,6,1,9,0.00
2013-10-26,69.7,56.2,48.7,59.2,52.7,48.4,100,89,68,30.05,29.98,9,1,16,0.02
2013-10-27,66.2,56.0,45.9,56.1,49.8,45.3,99,81,59,29.98,29.76,21,3,24,0.00
2013-10-28,73.7,60.8,52.5,54.0,48.7,44.1,82,66,36,29.89,29.63,14,3,22,0.00
2013-10-29,61.0,53.2,44.0,48.7,45.5,42.3,95,76,61,30.07,29.79,14,3,17,0.00
2013-10-30,56.6,44.3,30.5,44.8,39.5,29.4,98,85,51,30.38,30.07,13,2,16,0.00
2013-10-31,54.4,37.4,26.0,41.8,32.5,25.2,99,85,51,30.39,30.21,9,1,10,0.00
2013-11-1,51.2,39.8,28.3,44.3,36.9,27.5,100,90,71,30.22,29.97,7,1,10,0.01
2013-11-2,56.9,47.9,37.7,53.4,46.1,36.9,99,94,84,29.97,29.69,9,1,14,0.05
2013-11-3,56.2,49.1,44.0,52.3,45.3,38.3,98,87,76,29.77,29.58,12,3,21,0.03
2013-11-4,55.9,48.3,41.1,43.9,39.6,36.2,85,72,53,29.75,29.29,14,3,16,0.00
2013-11-5,52.4,43.2,32.5,45.2,38.9,31.0,97,85,74,29.55,29.31,10,2,20,0.04
2013-11-6,49.1,44.1,33.2,45.0,40.2,32.4,98,87,65,29.74,29.39,15,2,22,0.20
2013-11-7,60.9,54.4,45.9,53.5,50.2,45.0,99,86,72,29.87,29.70,17,3,22,0.03
2013-11-8,62.0,54.6,47.6,53.2,49.8,45.7,98,84,70,29.85,29.74,12,2,17,0.01
2013-11-9,54.1,47.1,35.3,51.1,44.4,33.9,99,91,73,29.90,29.73,11,2,13,0.10
2013-11-10,50.0,39.3,29.9,44.5,37.7,29.4,100,94,76,30.02,29.62,9,1,15,0.33
2013-11-11,44.3,40.1,37.3,41.2,38.6,36.7,99,94,83,30.49,30.02,7,1,11,0.01
2013-11-12,46.5,36.5,29.1,38.2,33.5,28.6,99,90,66,30.48,30.26,7,1,8,0.01
2013-11-13,41.9,34.4,28.3,39.5,33.3,27.5,100,96,90,30.44,30.27,4,1,6,0.00
2013-11-14,36.3,33.1,29.0,35.0,32.3,28.5,99,97,94,30.39,30.13,7,1,7,0.01
2013-11-15,38.6,36.6,33.8,37.8,35.7,33.1,99,97,95,30.42,30.15,5,0,7,0.06
2013-11-16,50.4,39.9,31.5,43.8,37.8,30.7,98,93,75,30.45,30.34,5,1,6,0.00
2013-11-17,37.2,34.1,30.9,37.0,33.9,30.6,100,99,98,30.34,30.13,5,1,7,0.02
2013-11-18,43.6,40.4,37.0,41.6,39.2,36.9,100,96,88,30.13,29.85,9,2,11,0.00
2013-11-19,46.0,43.7,41.1,43.8,41.3,39.2,94,91,87,29.85,29.58,7,2,11,0.00
2013-11-20,44.6,41.0,37.5,42.7,39.6,35.4,99,95,90,29.63,29.50,9,2,13,0.16
2013-11-21,42.4,39.4,36.7,41.3,37.3,33.9,97,92,86,29.62,29.50,6,1,12,0.00
2013-11-22,47.1,43.8,41.8,42.4,41.1,39.2,97,91,76,29.82,29.56,8,1,14,0.00
2013-11-23,44.4,42.1,40.2,41.6,39.8,38.8,100,92,85,29.93,29.82,11,2,15,0.00
2013-11-24,43.8,40.0,32.8,42.1,36.7,26.3,94,88,74,30.11,29.91,21,3,28,0.01
2013-11-25,36.9,30.5,24.5,28.3,25.2,21.9,91,81,69,30.32,30.11,15,3,24,0.00
2013-11-26,35.5,29.3,20.7,29.0,25.8,19.4,95,87,72,30.49,30.31,12,2,16,0.00
2013-11-27,34.9,24.9,16.1,26.8,21.2,14.4,96,86,65,30.55,30.46,7,1,13,0.01
2013-11-28,36.1,33.2,28.9,33.1,29.2,23.8,94,85,76,30.47,30.30,8,2,10,0.01
2013-11-29,40.5,37.1,34.2,35.5,34.0,32.6,94,89,81,30.31,29.82,13,3,14,0.02
2013-11-30,41.0,37.6,33.9,36.4,34.9,32.0,95,90,83,30.26,29.81,8,2,12,0.05
2013-12-1,42.0,37.6,32.4,36.1,34.3,31.1,97,88,75,30.37,30.26,12,2,13,0.01
2013-12-2,43.9,34.6,25.7,37.6,32.2,24.7,99,91,72,30.60,30.36,8,1,11,0.00
2013-12-3,37.3,27.3,22.0,31.7,25.3,20.7,97,92,76,30.58,30.38,7,1,9,0.01
2013-12-4,36.4,29.0,22.2,32.5,27.1,21.2,98,93,85,30.38,30.22,10,2,13,0.01
2013-12-5,41.2,37.1,31.5,37.1,32.9,29.8,96,85,74,30.31,29.63,19,5,26,0.05
2013-12-6,39.2,34.9,31.4,37.0,27.4,24.1,94,75,62,29.95,29.66,30,9,38,0.03
2013-12-7,37.0,33.9,31.1,32.8,28.1,23.7,90,80,67,30.23,29.95,21,6,26,0.02
2013-12-8,42.3,39.3,35.4,38.8,35.8,32.7,92,87,81,30.30,30.19,10,3,17,0.02
2013-12-9,43.8,42.8,41.5,40.6,39.4,37.5,92,88,83,30.42,30.16,11,3,21,0.06
2013-12-10,47.8,44.0,40.3,44.5,41.7,38.9,100,92,86,30.60,30.43,5,1,7,0.00
2013-12-11,43.2,41.5,38.6,41.3,39.5,37.5,96,92,89,30.60,30.53,5,1,8,0.00
2013-12-12,38.5,34.9,32.1,37.5,34.4,31.8,99,98,96,30.54,30.40,6,0,6,0.01
2013-12-13,33.0,32.1,31.1,32.9,31.8,30.8,100,99,99,30.40,30.29,4,1,6,0.00
2013-12-14,37.8,34.4,30.9,35.5,32.9,30.6,100,94,89,30.45,30.28,10,2,11,0.01
2013-12-15,41.8,38.4,32.6,36.2,34.2,30.2,95,85,78,30.49,30.42,9,2,14,0.00
2013-12-16,47.4,32.0,23.9,37.3,28.9,22.9,98,89,61,30.50,30.44,8,1,9,0.01
2013-12-17,38.0,27.1,20.2,32.4,25.3,19.0,97,93,78,30.46,30.39,6,1,7,0.00
2013-12-18,30.4,27.8,26.5,27.9,26.5,25.6,97,95,90,30.39,30.16,5,1,7,0.00
2013-12-19,31.7,29.5,27.4,28.4,26.8,25.2,95,90,86,30.16,29.99,8,2,11,0.00
2013-12-20,35.2,32.4,27.1,33.1,30.1,26.3,97,91,84,30.50,30.08,5,1,8,0.01
2013-12-21,40.1,29.4,22.1,35.1,27.7,21.0,99,94,78,30.54,30.35,7,1,10,0.01
2013-12-22,47.9,34.9,23.8,43.4,32.8,22.8,98,93,78,30.35,30.11,8,1,13,0.01
2013-12-23,50.5,44.3,31.1,42.9,39.2,30.3,97,83,71,30.16,29.94,11,2,16,0.00
2013-12-24,41.0,32.5,27.2,36.2,30.7,26.4,98,93,82,29.95,29.62,8,2,12,0.01
2013-12-25,41.4,33.8,28.1,39.3,33.0,27.3,99,97,92,29.62,29.38,7,2,9,0.00
2013-12-26,46.3,37.9,33.4,44.1,37.1,33.1,100,97,88,29.60,29.30,7,1,9,0.02
2013-12-27,48.2,39.4,27.1,40.7,36.4,26.3,99,90,70,29.83,29.59,10,2,14,0.00
2013-12-28,38.8,30.8,24.2,36.3,29.7,23.2,99,96,89,29.80,29.74,7,1,11,0.01
2013-12-29,44.9,38.6,30.8,38.4,34.7,28.7,98,86,73,30.28,29.80,9,2,21,0.00
2013-12-30,42.7,28.5,20.2,34.8,26.1,19.0,98,92,70,30.42,30.28,9,1,10,0.01
2013-12-31,32.7,25.9,17.3,31.5,24.7,15.8,97,95,94,30.34,30.09,6,0,7,0.00
2014-1-1,37.6,33.7,26.9,34.3,31.5,25.9,98,92,82,30.09,29.93,7,1,10,0.00
2014-1-2,38.1,31.8,24.5,34.8,30.1,23.5,100,94,84,29.93,29.82,8,1,10,0.00